Portada
METAR-TAF:

METAR-TAF

Aeroports :

Aeroport Internacional de Guangzhou-Baiyun

Canton, Xina

latitud: 23-10N, longitud: 113-20E, altitud: 8 m

Observació

L'informe es va fer fa 49 minuts, a les 00:30 UTC
Vent 14 kt del Nord/Nord-Est
Temperatura 21°C
Humitat 49%
Pressió 1022 hPa
Visibilitat 10 km o més
sense núvols per sota de 1500 mi sense presència de cumulonimbus.

METAR: ZGGG 140030Z 02007MPS CAVOK 21/10 Q1022 NOSIG

Hora: 09:19 (01:19 UTC)

Pronòstic

L'informe es va fer fa 4 hores i 16 minuts, a les 21:03 UTC
Pronòstic vàlid del 14 a les 00 UTC al 14 a les 24 UTC
Vent 12 kt del Nord/Nord-Est
Visibilitat 10 km o més
sense núvols per sota de 1500 mi sense presència de cumulonimbus.

TAF: ZGGG 132103Z 1400/1424 03006MPS CAVOK TX26/1407Z TN17/1422Z

Observacions i pronòstics meteorològics de més de 4000 aeroports (METAR i TAF).

Les estacions disponibles són els punts grocs i vermells al mapa.

Posi el ratolí al punt desitjat per veure el nom de l'estació.

Feu clic per veure les observacions i els pronòstics meteorològics.

Per canviar el mapa: feu clic els botons verds amb una creu de color negre per apropar; al botó verd amb un guió per allunyar la imatge; o en les fletxes verdes per a mapes adjacents.


METAR-TAF: